createdAt,value
2022-11-10T00:01:44.369Z,89.88
2022-11-10T00:04:31.244Z,89.84
2022-11-10T00:07:17.513Z,89.80
2022-11-10T00:10:04.470Z,89.67
2022-11-10T00:12:50.063Z,89.71
2022-11-10T00:15:44.310Z,89.61
2022-11-10T00:18:29.976Z,89.69
2022-11-10T00:21:18.151Z,89.59
2022-11-10T00:24:06.877Z,89.69
2022-11-10T00:26:52.581Z,89.64
2022-11-10T00:29:37.898Z,89.44
2022-11-10T00:32:26.528Z,89.53
2022-11-10T00:35:12.280Z,89.27
2022-11-10T00:38:02.361Z,89.14
2022-11-10T00:40:48.332Z,89.23
2022-11-10T00:43:36.875Z,89.05
2022-11-10T00:46:23.206Z,89.22
2022-11-10T00:49:08.628Z,89.15
2022-11-10T00:51:54.448Z,88.95
2022-11-10T00:54:46.441Z,89.19
2022-11-10T00:57:31.699Z,89.29
2022-11-10T01:00:18.001Z,89.52
2022-11-10T01:03:13.278Z,90.18
2022-11-10T01:06:05.300Z,89.63
2022-11-10T01:08:50.548Z,89.26
2022-11-10T01:11:41.729Z,88.91
2022-11-10T01:14:28.706Z,88.89
2022-11-10T01:17:14.271Z,88.91
2022-11-10T01:20:00.674Z,88.33
2022-11-10T01:22:46.600Z,88.43
2022-11-10T01:25:32.115Z,88.03
2022-11-10T01:28:19.745Z,88.06
2022-11-10T01:31:18.950Z,89.49
2022-11-10T01:34:04.738Z,89.39
2022-11-10T01:36:50.342Z,89.63
2022-11-10T01:39:36.518Z,90.24
2022-11-10T01:42:27.793Z,90.05
2022-11-10T01:45:54.563Z,90.04
2022-11-10T01:48:46.715Z,89.52
2022-11-10T01:51:39.457Z,89.21
2022-11-10T01:54:30.602Z,89.88
2022-11-10T01:57:17.629Z,89.92
2022-11-10T02:00:05.036Z,90.29
2022-11-10T02:03:03.529Z,90.03
2022-11-10T02:05:50.543Z,89.97
2022-11-10T02:08:36.831Z,90.08
2022-11-10T02:11:23.445Z,91.03
2022-11-10T02:14:09.854Z,91.64
2022-11-10T02:16:55.212Z,91.06
2022-11-10T02:19:42.529Z,90.87
2022-11-10T02:22:29.407Z,91.04
2022-11-10T02:25:21.250Z,91.28
2022-11-10T02:28:07.478Z,91.56
2022-11-10T02:30:54.447Z,91.35
2022-11-10T02:33:40.398Z,91.61
2022-11-10T02:36:25.814Z,91.18
2022-11-10T02:39:12.882Z,90.84
2022-11-10T02:41:59.065Z,90.92
2022-11-10T02:44:44.403Z,90.19
2022-11-10T02:47:30.214Z,90.18
2022-11-10T02:50:16.533Z,89.82
2022-11-10T02:53:02.502Z,89.81
2022-11-10T02:55:49.508Z,90.30
2022-11-10T02:58:34.933Z,89.63
2022-11-10T03:01:20.879Z,90.02
2022-11-10T03:04:06.602Z,89.35
2022-11-10T03:06:52.269Z,89.09
2022-11-10T03:09:37.982Z,89.81
2022-11-10T03:12:24.908Z,90.43
2022-11-10T03:15:10.751Z,91.56
2022-11-10T03:17:56.886Z,91.14
2022-11-10T03:20:42.327Z,90.80
2022-11-10T03:23:28.003Z,91.40
2022-11-10T03:26:13.799Z,91.41
2022-11-10T03:29:00.673Z,92.17
2022-11-10T03:31:46.445Z,91.96
2022-11-10T03:34:32.333Z,91.22
2022-11-10T03:37:18.619Z,91.73
2022-11-10T03:40:05.546Z,92.32
2022-11-10T03:42:51.660Z,92.66
2022-11-10T03:45:38.662Z,92.77
2022-11-10T03:48:24.045Z,92.97
2022-11-10T03:51:09.452Z,92.98
2022-11-10T03:53:54.830Z,93.03
2022-11-10T03:56:40.101Z,93.76
2022-11-10T03:59:25.553Z,93.10
2022-11-10T04:02:12.434Z,92.63
2022-11-10T04:04:58.325Z,92.09
2022-11-10T04:07:44.083Z,91.62
2022-11-10T04:10:31.664Z,91.46
2022-11-10T04:13:17.352Z,91.72
2022-11-10T04:16:03.099Z,92.52
2022-11-10T04:18:50.035Z,92.53
2022-11-10T04:21:35.643Z,92.83
2022-11-10T04:24:21.484Z,93.05
2022-11-10T04:27:06.961Z,93.16
2022-11-10T04:29:52.837Z,92.58
2022-11-10T04:32:38.442Z,92.01
2022-11-10T04:35:24.993Z,92.09
2022-11-10T04:38:10.609Z,91.69
2022-11-10T04:40:56.930Z,91.86
2022-11-10T04:43:44.280Z,91.39
2022-11-10T04:46:32.914Z,92.12
2022-11-10T04:49:18.922Z,91.82
2022-11-10T04:52:06.331Z,92.20
2022-11-10T04:54:52.192Z,93.60
2022-11-10T04:57:37.613Z,94.91
2022-11-10T05:00:23.543Z,94.55
2022-11-10T05:03:14.841Z,94.03
2022-11-10T05:06:10.923Z,94.21
2022-11-10T05:09:08.172Z,94.59
2022-11-10T05:11:56.678Z,95.07
2022-11-10T05:14:43.029Z,95.93
2022-11-10T05:17:29.818Z,95.69
2022-11-10T05:20:16.060Z,95.33
2022-11-10T05:23:02.808Z,94.51
2022-11-10T05:25:50.401Z,94.42
2022-11-10T05:28:37.375Z,94.49
2022-11-10T05:31:31.423Z,93.81
2022-11-10T05:34:17.570Z,93.91
2022-11-10T05:37:03.601Z,94.29
2022-11-10T05:39:52.957Z,94.86
2022-11-10T05:42:44.620Z,95.52
2022-11-10T05:45:35.366Z,95.63
2022-11-10T05:48:24.340Z,95.26
2022-11-10T05:51:12.372Z,95.69
2022-11-10T05:54:12.989Z,95.61
2022-11-10T05:56:58.706Z,95.42
2022-11-10T05:59:54.495Z,95.11
2022-11-10T06:02:42.404Z,94.46
2022-11-10T06:05:31.423Z,94.42
2022-11-10T06:08:19.920Z,93.50
2022-11-10T06:11:07.143Z,92.51
2022-11-10T06:13:53.226Z,93.02
2022-11-10T06:16:44.192Z,93.01
2022-11-10T06:19:44.468Z,92.99
2022-11-10T06:22:34.484Z,93.08
2022-11-10T06:26:08.124Z,92.64
2022-11-10T06:28:39.261Z,92.17
2022-11-10T06:31:35.681Z,91.29
2022-11-10T06:34:32.393Z,91.15
2022-11-10T06:40:47.333Z,90.91
2022-11-10T06:44:14.734Z,90.75
2022-11-10T06:47:02.218Z,89.46
2022-11-10T06:50:10.739Z,88.49
2022-11-10T06:53:00.114Z,89.67
2022-11-10T06:56:03.849Z,87.77
2022-11-10T06:58:59.509Z,84.58
2022-11-10T07:05:22.789Z,78.07
2022-11-10T07:08:12.459Z,79.50
2022-11-10T07:11:00.788Z,82.21
2022-11-10T09:16:38.659Z,45.82
2022-11-10T09:19:24.555Z,44.87
2022-11-10T09:22:10.366Z,43.26
2022-11-10T09:24:56.558Z,45.65
2022-11-10T09:27:42.347Z,45.55
2022-11-10T09:30:28.593Z,43.55
2022-11-10T09:33:16.846Z,42.88
2022-11-10T09:36:06.718Z,41.23
2022-11-10T09:38:52.545Z,41.20
2022-11-10T09:41:42.698Z,39.77
2022-11-10T09:44:35.749Z,38.78
2022-11-10T09:47:56.248Z,38.28
2022-11-10T09:50:49.440Z,38.36
2022-11-10T09:53:43.344Z,37.19
2022-11-10T09:56:35.300Z,36.18
2022-11-10T09:59:27.646Z,34.88
2022-11-10T10:02:30.512Z,34.87
2022-11-10T10:05:58.349Z,34.96
2022-11-10T10:08:59.100Z,34.49
2022-11-10T10:12:03.628Z,34.23
2022-11-10T10:15:15.194Z,34.92
2022-11-10T10:18:22.980Z,33.94
2022-11-10T10:21:35.128Z,36.32
2022-11-10T10:24:24.947Z,36.86
2022-11-10T10:27:19.994Z,35.84
2022-11-10T10:30:13.950Z,37.94
2022-11-10T10:33:15.671Z,39.72
2022-11-10T10:36:09.500Z,37.58
2022-11-10T10:39:02.916Z,40.79
2022-11-10T10:41:48.580Z,39.43
2022-11-10T10:44:37.729Z,41.08
2022-11-10T10:47:37.324Z,38.01
2022-11-10T10:50:28.769Z,36.77
2022-11-10T10:53:18.603Z,35.82
2022-11-10T10:56:17.537Z,34.32
2022-11-10T10:59:05.313Z,32.70
2022-11-10T11:01:54.164Z,32.96
2022-11-10T11:04:39.731Z,33.39
2022-11-10T11:24:24.427Z,41.74
2022-11-10T11:27:18.625Z,38.42
2022-11-10T11:30:13.552Z,39.43
2022-11-10T11:33:25.167Z,38.17
2022-11-10T11:36:30.600Z,38.53
2022-11-10T11:39:35.341Z,38.05
2022-11-10T11:42:42.240Z,37.42
2022-11-10T11:45:45.535Z,38.38
2022-11-10T11:48:51.377Z,38.39
2022-11-10T11:51:48.603Z,45.99
2022-11-10T11:54:59.620Z,44.26
2022-11-10T11:58:08.686Z,41.80
2022-11-10T12:01:18.960Z,42.32
2022-11-10T12:04:49.924Z,44.55
2022-11-10T12:07:58.073Z,43.87
2022-11-10T12:11:09.127Z,45.28
2022-11-10T12:14:12.018Z,45.16
2022-11-10T12:17:10.456Z,45.50
2022-11-10T12:20:21.592Z,46.62
2022-11-10T12:23:21.227Z,48.09
2022-11-10T12:26:27.380Z,47.14
2022-11-10T12:29:26.628Z,47.34
2022-11-10T12:32:21.494Z,47.99
2022-11-10T12:35:18.352Z,48.78
2022-11-10T12:38:11.872Z,48.14
2022-11-10T12:41:06.969Z,49.06
2022-11-10T12:44:08.195Z,49.08
2022-11-10T12:46:58.512Z,48.91
2022-11-10T12:50:01.832Z,51.11
2022-11-10T12:52:55.048Z,50.22
2022-11-10T12:55:47.106Z,51.25
2022-11-10T12:58:34.141Z,50.87
2022-11-10T13:05:32.405Z,52.03
2022-11-10T13:08:35.940Z,50.78
2022-11-10T13:11:27.849Z,50.94
2022-11-10T13:14:24.576Z,52.12
2022-11-10T13:17:55.054Z,52.44
2022-11-10T13:20:52.511Z,52.67
2022-11-10T13:24:41.559Z,52.52
2022-11-10T13:27:52.500Z,53.04
2022-11-10T13:30:44.194Z,53.67
2022-11-10T13:33:36.328Z,53.17
2022-11-10T13:36:36.833Z,52.69
2022-11-10T13:39:26.852Z,53.89
2022-11-10T13:42:22.244Z,53.86
2022-11-10T13:45:31.545Z,53.35
2022-11-10T13:48:47.460Z,53.80
2022-11-10T13:51:45.426Z,54.41
2022-11-10T13:55:05.881Z,55.18
2022-11-10T13:58:02.031Z,54.70
2022-11-10T14:01:11.168Z,54.79
2022-11-10T14:04:00.994Z,54.75
2022-11-10T14:06:52.776Z,56.61
2022-11-10T14:09:42.946Z,55.78
2022-11-10T14:12:45.560Z,56.15
2022-11-10T14:15:41.894Z,55.39
2022-11-10T14:18:38.966Z,55.63
2022-11-10T14:21:45.442Z,55.78
2022-11-10T14:24:38.638Z,57.43
2022-11-10T14:27:28.462Z,55.78
2022-11-10T14:30:24.312Z,57.00
2022-11-10T14:33:14.550Z,56.92
2022-11-10T14:36:04.141Z,58.52
2022-11-10T14:38:52.736Z,58.46
2022-11-10T14:41:49.974Z,60.03
2022-11-10T14:44:35.831Z,60.65
2022-11-10T14:47:28.275Z,60.99
2022-11-10T14:50:22.227Z,61.00
2022-11-10T14:53:22.016Z,61.80
2022-11-10T14:56:19.137Z,61.72
2022-11-10T14:59:14.933Z,62.27
2022-11-10T15:02:10.674Z,62.13
2022-11-10T15:05:01.263Z,62.37
2022-11-10T15:07:51.277Z,62.95
2022-11-10T15:10:52.455Z,63.34
2022-11-10T15:13:39.940Z,62.25
2022-11-10T15:16:28.923Z,62.12
2022-11-10T15:19:26.546Z,63.19
2022-11-10T15:22:19.253Z,63.49
2022-11-10T15:25:15.721Z,63.36
2022-11-10T15:28:06.234Z,65.03
2022-11-10T15:30:57.262Z,64.90
2022-11-10T15:33:47.984Z,64.55
2022-11-10T15:36:36.978Z,65.79
2022-11-10T15:39:24.200Z,66.06
2022-11-10T15:42:15.284Z,66.51
2022-11-10T15:45:00.643Z,66.55
2022-11-10T15:47:47.491Z,67.17
2022-11-10T15:50:33.682Z,67.53
2022-11-10T15:54:08.894Z,67.24
2022-11-10T16:01:46.909Z,69.31
2022-11-10T16:04:59.926Z,71.43
2022-11-10T16:08:27.111Z,71.13
2022-11-10T16:11:31.087Z,71.86
2022-11-10T16:14:26.643Z,72.71
2022-11-10T16:17:16.629Z,73.24
2022-11-10T16:20:22.059Z,73.29
2022-11-10T16:23:13.110Z,73.35
2022-11-10T16:26:15.122Z,74.29
2022-11-10T16:29:17.078Z,76.22
2022-11-10T16:32:04.087Z,76.54
2022-11-10T16:34:55.319Z,76.67
2022-11-10T16:37:51.818Z,77.53
2022-11-10T16:40:38.200Z,78.48
2022-11-10T16:43:40.603Z,79.43
2022-11-10T16:46:31.063Z,80.75
2022-11-10T16:49:37.265Z,80.79
2022-11-10T17:02:01.056Z,80.33
2022-11-10T17:05:51.132Z,79.95
2022-11-10T17:11:57.948Z,79.43
2022-11-10T17:14:45.184Z,79.37
2022-11-10T17:17:35.333Z,80.25
2022-11-10T17:20:28.526Z,81.02
2022-11-10T17:23:19.752Z,81.10
2022-11-10T17:26:08.442Z,81.53
2022-11-10T17:28:54.314Z,82.26
2022-11-10T17:31:40.319Z,83.33
2022-11-10T17:34:28.540Z,82.56
2022-11-10T17:37:19.051Z,82.33
2022-11-10T17:40:19.702Z,82.47
2022-11-10T17:43:10.751Z,81.22
2022-11-10T17:46:01.091Z,83.00
2022-11-10T17:48:46.785Z,82.68
2022-11-10T17:51:35.859Z,82.74
2022-11-10T17:54:24.235Z,84.07
2022-11-10T17:57:11.236Z,82.47
2022-11-10T17:59:57.296Z,82.46
2022-11-10T18:02:44.092Z,83.68
2022-11-10T18:05:29.740Z,83.36
2022-11-10T18:08:17.916Z,85.65
2022-11-10T18:11:03.398Z,85.96
2022-11-10T18:13:49.214Z,84.16
2022-11-10T18:16:34.970Z,82.94
2022-11-10T18:19:20.295Z,85.02
2022-11-10T18:22:06.413Z,84.55
2022-11-10T18:24:53.417Z,81.95
2022-11-10T18:27:39.004Z,82.61
2022-11-10T18:30:24.811Z,83.66
2022-11-10T18:33:12.045Z,84.57
2022-11-10T18:35:59.207Z,85.89
2022-11-10T18:38:44.630Z,85.24
2022-11-10T18:41:31.628Z,83.92
2022-11-10T18:44:18.793Z,84.78
2022-11-10T18:47:05.425Z,82.73
2022-11-10T18:49:50.540Z,83.50
2022-11-10T18:52:36.107Z,84.23
2022-11-10T18:55:21.849Z,83.79
2022-11-10T18:58:10.301Z,83.56
2022-11-10T19:01:03.068Z,82.32
2022-11-10T19:03:49.693Z,82.61
2022-11-10T19:06:36.447Z,82.12
2022-11-10T19:09:25.594Z,82.42
2022-11-10T19:12:12.970Z,82.84
2022-11-10T19:15:00.673Z,84.94
2022-11-10T19:17:46.636Z,84.78
2022-11-10T19:20:35.653Z,84.92
2022-11-10T19:23:21.822Z,85.92
2022-11-10T19:26:10.733Z,86.64
2022-11-10T19:28:56.753Z,86.28
2022-11-10T19:31:43.814Z,85.10
2022-11-10T19:34:29.822Z,84.43
2022-11-10T19:37:15.999Z,84.50
2022-11-10T19:40:05.057Z,83.70
2022-11-10T19:42:55.838Z,83.49
2022-11-10T19:45:44.451Z,83.00
2022-11-10T19:48:32.576Z,83.25
2022-11-10T19:51:19.140Z,83.66
2022-11-10T19:54:04.780Z,83.80
2022-11-10T19:56:51.388Z,84.76
2022-11-10T19:59:36.666Z,84.89
2022-11-10T20:02:22.356Z,84.69
2022-11-10T20:05:09.005Z,84.79
2022-11-10T20:07:54.642Z,84.97
2022-11-10T20:10:42.817Z,86.31
2022-11-10T20:13:29.392Z,86.75
2022-11-10T20:16:14.944Z,86.60
2022-11-10T20:19:00.959Z,86.00
2022-11-10T20:22:00.840Z,85.17
2022-11-10T20:24:50.924Z,84.38
2022-11-10T20:27:37.635Z,84.40
2022-11-10T20:30:32.153Z,83.95
2022-11-10T20:33:21.049Z,83.44
2022-11-10T20:36:11.033Z,83.38
2022-11-10T20:39:00.731Z,82.79
2022-11-10T20:41:46.865Z,82.73
2022-11-10T20:44:32.947Z,82.43
2022-11-10T20:51:21.226Z,82.20
2022-11-10T20:58:35.636Z,82.49
2022-11-10T21:01:21.627Z,82.35
2022-11-10T21:04:11.457Z,83.12
2022-11-10T21:07:23.737Z,83.09
2022-11-10T21:10:23.055Z,83.55
2022-11-10T21:13:08.475Z,83.47
2022-11-10T21:15:56.768Z,83.81
2022-11-10T21:18:45.767Z,84.25
2022-11-10T21:21:31.831Z,84.07
2022-11-10T21:24:21.883Z,83.31
2022-11-10T21:27:10.279Z,84.57
2022-11-10T21:29:56.590Z,85.40
2022-11-10T21:32:42.188Z,86.17
2022-11-10T21:35:28.100Z,85.50
2022-11-10T21:38:14.020Z,85.51
2022-11-10T21:40:59.978Z,85.34
2022-11-10T21:43:47.153Z,84.31
2022-11-10T21:46:32.883Z,83.83
2022-11-10T21:49:18.324Z,84.52
2022-11-10T21:52:04.211Z,86.50
2022-11-10T21:54:50.261Z,88.51
2022-11-10T21:57:36.378Z,89.90
2022-11-10T22:00:23.373Z,88.82
2022-11-10T22:03:09.053Z,88.37
2022-11-10T22:05:54.459Z,86.62
2022-11-10T22:08:42.389Z,85.83
2022-11-10T22:11:27.790Z,85.76
2022-11-10T22:14:13.961Z,84.58
2022-11-10T22:17:01.032Z,84.82
2022-11-10T22:19:46.385Z,85.93
2022-11-10T22:22:31.870Z,85.17
2022-11-10T22:25:17.453Z,84.39
2022-11-10T22:28:03.733Z,84.86
2022-11-10T22:30:49.498Z,84.80
2022-11-10T22:33:39.522Z,84.43
2022-11-10T22:36:24.798Z,83.38
2022-11-10T22:39:16.279Z,83.97
2022-11-10T22:42:01.840Z,85.71
2022-11-10T22:44:47.617Z,86.72
2022-11-10T22:47:33.228Z,84.80
2022-11-10T22:50:20.592Z,83.52
2022-11-10T22:53:05.868Z,83.65
2022-11-10T22:55:51.627Z,83.89
2022-11-10T22:58:37.911Z,84.53
2022-11-10T23:01:23.572Z,83.61
2022-11-10T23:04:10.736Z,83.84
2022-11-10T23:06:58.080Z,84.18
2022-11-10T23:09:43.555Z,84.26
2022-11-10T23:12:28.884Z,84.39
2022-11-10T23:15:14.670Z,83.78
2022-11-10T23:18:06.297Z,84.01
2022-11-10T23:20:57.226Z,83.98
2022-11-10T23:23:46.521Z,83.54
2022-11-10T23:26:31.910Z,84.55
2022-11-10T23:29:17.824Z,84.88
2022-11-10T23:32:04.825Z,84.13
2022-11-10T23:34:51.331Z,84.17
2022-11-10T23:37:36.975Z,83.46
2022-11-10T23:40:25.179Z,84.22
2022-11-10T23:43:11.217Z,84.15
2022-11-10T23:46:07.188Z,82.63
2022-11-10T23:48:52.780Z,83.41
2022-11-10T23:51:38.770Z,83.59
2022-11-10T23:54:24.485Z,82.35
2022-11-10T23:57:12.187Z,82.15
2022-11-10T23:59:57.829Z,83.19
